sensor_id;sensor_type;location;lat;lon;timestamp;temperature;humidity
16172;DHT22;8192;53.596;10.166;2022-07-03T00:01:42;16.90;99.90
16172;DHT22;8192;53.596;10.166;2022-07-03T00:04:09;17.00;99.90
16172;DHT22;8192;53.596;10.166;2022-07-03T00:06:36;17.00;99.90
16172;DHT22;8192;53.596;10.166;2022-07-03T00:09:05;17.00;99.90
16172;DHT22;8192;53.596;10.166;2022-07-03T00:11:34;17.00;99.90
16172;DHT22;8192;53.596;10.166;2022-07-03T00:14:01;17.00;99.90
16172;DHT22;8192;53.596;10.166;2022-07-03T00:16:28;17.10;99.90
16172;DHT22;8192;53.596;10.166;2022-07-03T00:18:55;17.20;99.90
16172;DHT22;8192;53.596;10.166;2022-07-03T00:21:28;17.20;99.90
16172;DHT22;8192;53.596;10.166;2022-07-03T00:24:00;17.20;99.90
16172;DHT22;8192;53.596;10.166;2022-07-03T00:26:32;17.20;99.90
16172;DHT22;8192;53.596;10.166;2022-07-03T00:29:02;17.20;99.90
16172;DHT22;8192;53.596;10.166;2022-07-03T00:31:31;17.20;99.90
16172;DHT22;8192;53.596;10.166;2022-07-03T00:34:00;17.20;99.90
16172;DHT22;8192;53.596;10.166;2022-07-03T00:36:32;17.20;99.90
16172;DHT22;8192;53.596;10.166;2022-07-03T00:39:03;17.10;99.90
16172;DHT22;8192;53.596;10.166;2022-07-03T00:41:33;17.10;99.90
16172;DHT22;8192;53.596;10.166;2022-07-03T00:44:03;17.00;99.90
16172;DHT22;8192;53.596;10.166;2022-07-03T00:46:30;17.00;99.90
16172;DHT22;8192;53.596;10.166;2022-07-03T00:48:58;17.10;99.90
16172;DHT22;8192;53.596;10.166;2022-07-03T00:51:27;17.10;99.90
16172;DHT22;8192;53.596;10.166;2022-07-03T00:53:55;17.10;99.90
16172;DHT22;8192;53.596;10.166;2022-07-03T00:56:25;17.10;99.90
16172;DHT22;8192;53.596;10.166;2022-07-03T00:58:53;17.00;99.90
16172;DHT22;8192;53.596;10.166;2022-07-03T01:01:25;17.10;99.90
16172;DHT22;8192;53.596;10.166;2022-07-03T01:04:04;17.00;99.90
16172;DHT22;8192;53.596;10.166;2022-07-03T01:06:40;16.90;99.90
16172;DHT22;8192;53.596;10.166;2022-07-03T01:09:15;16.80;99.90
16172;DHT22;8192;53.596;10.166;2022-07-03T01:11:50;16.80;99.90
16172;DHT22;8192;53.596;10.166;2022-07-03T01:14:32;16.80;99.90
16172;DHT22;8192;53.596;10.166;2022-07-03T01:17:06;16.80;99.90
16172;DHT22;8192;53.596;10.166;2022-07-03T01:19:37;16.80;99.90
16172;DHT22;8192;53.596;10.166;2022-07-03T01:22:32;16.70;99.90
16172;DHT22;8192;53.596;10.166;2022-07-03T01:25:13;16.70;99.90
16172;DHT22;8192;53.596;10.166;2022-07-03T01:27:57;16.60;99.90
16172;DHT22;8192;53.596;10.166;2022-07-03T01:30:25;16.60;99.90
16172;DHT22;8192;53.596;10.166;2022-07-03T01:32:58;16.50;99.90
16172;DHT22;8192;53.596;10.166;2022-07-03T01:35:31;16.40;99.90
16172;DHT22;8192;53.596;10.166;2022-07-03T01:38:08;16.50;99.90
16172;DHT22;8192;53.596;10.166;2022-07-03T01:40:38;16.60;99.90
16172;DHT22;8192;53.596;10.166;2022-07-03T01:43:08;16.70;99.90
16172;DHT22;8192;53.596;10.166;2022-07-03T01:45:38;16.70;99.90
16172;DHT22;8192;53.596;10.166;2022-07-03T01:48:07;16.70;99.90
16172;DHT22;8192;53.596;10.166;2022-07-03T01:50:35;16.70;99.90
16172;DHT22;8192;53.596;10.166;2022-07-03T01:53:03;16.80;99.90
16172;DHT22;8192;53.596;10.166;2022-07-03T01:55:33;16.80;99.90
16172;DHT22;8192;53.596;10.166;2022-07-03T01:58:01;16.70;99.90
16172;DHT22;8192;53.596;10.166;2022-07-03T02:00:30;16.70;99.90
16172;DHT22;8192;53.596;10.166;2022-07-03T02:03:00;16.70;99.90
16172;DHT22;8192;53.596;10.166;2022-07-03T02:05:38;16.70;99.90
16172;DHT22;8192;53.596;10.166;2022-07-03T02:08:20;16.60;99.90
16172;DHT22;8192;53.596;10.166;2022-07-03T02:11:08;16.70;99.90
16172;DHT22;8192;53.596;10.166;2022-07-03T02:13:39;16.60;99.90
16172;DHT22;8192;53.596;10.166;2022-07-03T02:16:18;16.50;99.90
16172;DHT22;8192;53.596;10.166;2022-07-03T02:18:50;16.50;99.90
16172;DHT22;8192;53.596;10.166;2022-07-03T02:21:19;16.50;99.90
16172;DHT22;8192;53.596;10.166;2022-07-03T02:23:53;16.50;99.90
16172;DHT22;8192;53.596;10.166;2022-07-03T02:26:27;16.50;99.90
16172;DHT22;8192;53.596;10.166;2022-07-03T02:29:01;16.50;99.90
16172;DHT22;8192;53.596;10.166;2022-07-03T02:31:37;16.50;99.90
16172;DHT22;8192;53.596;10.166;2022-07-03T02:34:06;16.50;99.90
16172;DHT22;8192;53.596;10.166;2022-07-03T02:36:35;16.50;99.90
16172;DHT22;8192;53.596;10.166;2022-07-03T02:39:02;16.50;99.90
16172;DHT22;8192;53.596;10.166;2022-07-03T02:41:42;16.50;99.90
16172;DHT22;8192;53.596;10.166;2022-07-03T02:44:16;16.50;99.90
16172;DHT22;8192;53.596;10.166;2022-07-03T02:46:59;16.60;99.90
16172;DHT22;8192;53.596;10.166;2022-07-03T02:49:50;16.60;99.90
16172;DHT22;8192;53.596;10.166;2022-07-03T02:52:37;16.60;99.90
16172;DHT22;8192;53.596;10.166;2022-07-03T02:55:09;16.60;99.90
16172;DHT22;8192;53.596;10.166;2022-07-03T02:57:40;16.70;99.90
16172;DHT22;8192;53.596;10.166;2022-07-03T03:00:10;16.70;99.90
16172;DHT22;8192;53.596;10.166;2022-07-03T03:02:51;16.70;99.90
16172;DHT22;8192;53.596;10.166;2022-07-03T03:05:25;16.70;99.90
16172;DHT22;8192;53.596;10.166;2022-07-03T03:08:05;16.70;99.90
16172;DHT22;8192;53.596;10.166;2022-07-03T03:10:36;16.70;99.90
16172;DHT22;8192;53.596;10.166;2022-07-03T03:13:06;16.60;99.90
16172;DHT22;8192;53.596;10.166;2022-07-03T03:15:34;16.50;99.90
16172;DHT22;8192;53.596;10.166;2022-07-03T03:18:11;16.50;99.90
16172;DHT22;8192;53.596;10.166;2022-07-03T03:20:39;16.40;99.90
16172;DHT22;8192;53.596;10.166;2022-07-03T03:23:19;16.30;99.90
16172;DHT22;8192;53.596;10.166;2022-07-03T03:25:51;16.20;99.90
16172;DHT22;8192;53.596;10.166;2022-07-03T03:28:19;16.10;99.90
16172;DHT22;8192;53.596;10.166;2022-07-03T03:30:50;16.00;99.90
16172;DHT22;8192;53.596;10.166;2022-07-03T03:33:19;15.90;99.90
16172;DHT22;8192;53.596;10.166;2022-07-03T03:35:46;16.00;99.90
16172;DHT22;8192;53.596;10.166;2022-07-03T03:38:13;16.00;99.90
16172;DHT22;8192;53.596;10.166;2022-07-03T03:40:43;16.10;99.90
16172;DHT22;8192;53.596;10.166;2022-07-03T03:43:10;16.20;99.90
16172;DHT22;8192;53.596;10.166;2022-07-03T03:45:39;16.10;99.90
16172;DHT22;8192;53.596;10.166;2022-07-03T03:48:06;16.20;99.90
16172;DHT22;8192;53.596;10.166;2022-07-03T03:50:35;16.20;99.90
16172;DHT22;8192;53.596;10.166;2022-07-03T03:53:03;16.30;99.90
16172;DHT22;8192;53.596;10.166;2022-07-03T03:55:30;16.30;99.90
16172;DHT22;8192;53.596;10.166;2022-07-03T03:57:57;16.30;99.90
16172;DHT22;8192;53.596;10.166;2022-07-03T04:00:24;16.10;99.90
16172;DHT22;8192;53.596;10.166;2022-07-03T04:02:51;16.00;99.90
16172;DHT22;8192;53.596;10.166;2022-07-03T04:05:18;15.80;99.90
16172;DHT22;8192;53.596;10.166;2022-07-03T04:07:46;15.70;99.90
16172;DHT22;8192;53.596;10.166;2022-07-03T04:10:13;15.70;99.90
16172;DHT22;8192;53.596;10.166;2022-07-03T04:12:41;15.80;99.90
16172;DHT22;8192;53.596;10.166;2022-07-03T04:15:08;15.80;99.90
16172;DHT22;8192;53.596;10.166;2022-07-03T04:17:35;15.90;99.90
16172;DHT22;8192;53.596;10.166;2022-07-03T04:20:27;15.90;99.90
16172;DHT22;8192;53.596;10.166;2022-07-03T04:22:57;16.00;99.90
16172;DHT22;8192;53.596;10.166;2022-07-03T04:25:25;16.10;99.90
16172;DHT22;8192;53.596;10.166;2022-07-03T04:27:52;16.70;99.90
16172;DHT22;8192;53.596;10.166;2022-07-03T04:30:19;17.40;99.90
16172;DHT22;8192;53.596;10.166;2022-07-03T04:32:46;17.70;99.90
16172;DHT22;8192;53.596;10.166;2022-07-03T04:35:14;17.80;99.90
16172;DHT22;8192;53.596;10.166;2022-07-03T04:37:41;18.70;99.90
16172;DHT22;8192;53.596;10.166;2022-07-03T04:40:11;19.70;99.90
16172;DHT22;8192;53.596;10.166;2022-07-03T04:42:39;20.60;99.90
16172;DHT22;8192;53.596;10.166;2022-07-03T04:45:07;21.50;99.90
16172;DHT22;8192;53.596;10.166;2022-07-03T04:47:34;22.20;92.40
16172;DHT22;8192;53.596;10.166;2022-07-03T04:50:03;22.70;91.80
16172;DHT22;8192;53.596;10.166;2022-07-03T04:52:30;23.00;80.90
16172;DHT22;8192;53.596;10.166;2022-07-03T04:54:57;23.20;76.10
16172;DHT22;8192;53.596;10.166;2022-07-03T04:57:25;23.30;74.20
16172;DHT22;8192;53.596;10.166;2022-07-03T04:59:54;23.40;66.00
16172;DHT22;8192;53.596;10.166;2022-07-03T05:02:21;23.80;66.00
16172;DHT22;8192;53.596;10.166;2022-07-03T05:04:48;23.80;62.10
16172;DHT22;8192;53.596;10.166;2022-07-03T05:07:14;24.10;62.50
16172;DHT22;8192;53.596;10.166;2022-07-03T05:09:42;24.20;61.60
16172;DHT22;8192;53.596;10.166;2022-07-03T05:12:09;24.00;60.90
16172;DHT22;8192;53.596;10.166;2022-07-03T05:14:38;24.40;59.90
16172;DHT22;8192;53.596;10.166;2022-07-03T05:17:05;24.10;54.70
16172;DHT22;8192;53.596;10.166;2022-07-03T05:19:32;24.00;55.70
16172;DHT22;8192;53.596;10.166;2022-07-03T05:21:59;24.20;54.20
16172;DHT22;8192;53.596;10.166;2022-07-03T05:24:26;24.10;55.50
16172;DHT22;8192;53.596;10.166;2022-07-03T05:26:53;24.50;58.40
16172;DHT22;8192;53.596;10.166;2022-07-03T05:29:20;24.40;51.20
16172;DHT22;8192;53.596;10.166;2022-07-03T05:31:49;23.80;51.80
16172;DHT22;8192;53.596;10.166;2022-07-03T05:34:16;24.30;54.10
16172;DHT22;8192;53.596;10.166;2022-07-03T05:36:43;24.00;55.50
16172;DHT22;8192;53.596;10.166;2022-07-03T05:39:10;23.40;63.20
16172;DHT22;8192;53.596;10.166;2022-07-03T05:41:54;23.10;52.00
16172;DHT22;8192;53.596;10.166;2022-07-03T05:44:22;24.10;56.50
16172;DHT22;8192;53.596;10.166;2022-07-03T05:46:53;24.20;55.20
16172;DHT22;8192;53.596;10.166;2022-07-03T05:49:20;24.30;54.30
16172;DHT22;8192;53.596;10.166;2022-07-03T05:51:47;23.80;55.80
16172;DHT22;8192;53.596;10.166;2022-07-03T05:54:14;23.40;57.60
16172;DHT22;8192;53.596;10.166;2022-07-03T05:56:42;23.20;53.00
16172;DHT22;8192;53.596;10.166;2022-07-03T05:59:09;22.60;57.20
16172;DHT22;8192;53.596;10.166;2022-07-03T06:01:37;22.30;71.90
16172;DHT22;8192;53.596;10.166;2022-07-03T06:04:10;23.60;67.70
16172;DHT22;8192;53.596;10.166;2022-07-03T06:06:38;24.90;52.40
16172;DHT22;8192;53.596;10.166;2022-07-03T06:09:05;25.80;50.50
16172;DHT22;8192;53.596;10.166;2022-07-03T06:11:34;26.70;46.40
16172;DHT22;8192;53.596;10.166;2022-07-03T06:14:01;27.20;43.10
16172;DHT22;8192;53.596;10.166;2022-07-03T06:16:29;27.50;39.80
16172;DHT22;8192;53.596;10.166;2022-07-03T06:19:02;27.60;42.20
16172;DHT22;8192;53.596;10.166;2022-07-03T06:21:39;27.80;37.60
16172;DHT22;8192;53.596;10.166;2022-07-03T06:24:06;28.20;37.20
16172;DHT22;8192;53.596;10.166;2022-07-03T06:26:34;27.90;35.90
16172;DHT22;8192;53.596;10.166;2022-07-03T06:29:02;27.40;33.70
16172;DHT22;8192;53.596;10.166;2022-07-03T06:31:29;27.50;35.40
16172;DHT22;8192;53.596;10.166;2022-07-03T06:33:57;28.00;37.70
16172;DHT22;8192;53.596;10.166;2022-07-03T06:36:24;28.40;32.80
16172;DHT22;8192;53.596;10.166;2022-07-03T06:38:52;28.30;32.50
16172;DHT22;8192;53.596;10.166;2022-07-03T06:41:21;28.80;32.00
16172;DHT22;8192;53.596;10.166;2022-07-03T06:43:48;28.60;25.70
16172;DHT22;8192;53.596;10.166;2022-07-03T06:46:15;28.80;27.30
16172;DHT22;8192;53.596;10.166;2022-07-03T06:48:42;28.80;28.70
16172;DHT22;8192;53.596;10.166;2022-07-03T06:51:09;28.90;27.60
16172;DHT22;8192;53.596;10.166;2022-07-03T06:53:37;29.00;27.10
16172;DHT22;8192;53.596;10.166;2022-07-03T06:56:06;28.80;26.50
16172;DHT22;8192;53.596;10.166;2022-07-03T06:58:33;29.00;28.50
16172;DHT22;8192;53.596;10.166;2022-07-03T07:01:00;29.30;28.50
16172;DHT22;8192;53.596;10.166;2022-07-03T07:03:28;29.80;27.40
16172;DHT22;8192;53.596;10.166;2022-07-03T07:05:55;30.00;21.80
16172;DHT22;8192;53.596;10.166;2022-07-03T07:08:22;29.50;19.00
16172;DHT22;8192;53.596;10.166;2022-07-03T07:10:49;28.90;19.60
16172;DHT22;8192;53.596;10.166;2022-07-03T07:13:18;28.70;21.70
16172;DHT22;8192;53.596;10.166;2022-07-03T07:15:45;28.60;21.80
16172;DHT22;8192;53.596;10.166;2022-07-03T07:18:12;29.30;20.80
16172;DHT22;8192;53.596;10.166;2022-07-03T07:20:40;29.60;21.60
16172;DHT22;8192;53.596;10.166;2022-07-03T07:23:07;30.00;19.40
16172;DHT22;8192;53.596;10.166;2022-07-03T07:25:34;29.50;17.30
16172;DHT22;8192;53.596;10.166;2022-07-03T07:28:01;29.50;19.00
16172;DHT22;8192;53.596;10.166;2022-07-03T07:30:29;29.90;17.20
16172;DHT22;8192;53.596;10.166;2022-07-03T07:32:56;30.00;19.40
16172;DHT22;8192;53.596;10.166;2022-07-03T07:35:30;30.90;15.80
16172;DHT22;8192;53.596;10.166;2022-07-03T07:37:57;30.80;16.10
16172;DHT22;8192;53.596;10.166;2022-07-03T07:40:24;30.70;17.50
16172;DHT22;8192;53.596;10.166;2022-07-03T07:42:52;30.80;15.50
16172;DHT22;8192;53.596;10.166;2022-07-03T07:45:19;31.00;15.80
16172;DHT22;8192;53.596;10.166;2022-07-03T07:47:47;31.20;14.50
16172;DHT22;8192;53.596;10.166;2022-07-03T07:50:14;31.40;17.70
16172;DHT22;8192;53.596;10.166;2022-07-03T07:52:56;30.70;13.10
16172;DHT22;8192;53.596;10.166;2022-07-03T07:55:23;30.40;15.70
16172;DHT22;8192;53.596;10.166;2022-07-03T07:57:51;30.00;17.60
16172;DHT22;8192;53.596;10.166;2022-07-03T08:00:19;30.60;13.40
16172;DHT22;8192;53.596;10.166;2022-07-03T08:02:59;31.00;12.90
16172;DHT22;8192;53.596;10.166;2022-07-03T08:05:43;30.70;12.30
16172;DHT22;8192;53.596;10.166;2022-07-03T08:08:12;29.10;12.60
16172;DHT22;8192;53.596;10.166;2022-07-03T08:10:41;28.40;14.40
16172;DHT22;8192;53.596;10.166;2022-07-03T08:13:08;28.30;15.70
16172;DHT22;8192;53.596;10.166;2022-07-03T08:15:36;28.00;15.80
16172;DHT22;8192;53.596;10.166;2022-07-03T08:18:07;28.40;18.00
16172;DHT22;8192;53.596;10.166;2022-07-03T08:20:36;28.90;20.40
16172;DHT22;8192;53.596;10.166;2022-07-03T08:23:04;29.30;18.70
16172;DHT22;8192;53.596;10.166;2022-07-03T08:25:31;30.20;14.20
16172;DHT22;8192;53.596;10.166;2022-07-03T08:28:07;30.90;12.40
16172;DHT22;8192;53.596;10.166;2022-07-03T08:30:34;32.00;13.10
16172;DHT22;8192;53.596;10.166;2022-07-03T08:33:28;32.50;13.00
16172;DHT22;8192;53.596;10.166;2022-07-03T08:36:15;32.80;9.90
16172;DHT22;8192;53.596;10.166;2022-07-03T08:38:42;32.70;9.70
16172;DHT22;8192;53.596;10.166;2022-07-03T08:41:16;32.20;10.40
16172;DHT22;8192;53.596;10.166;2022-07-03T08:43:45;31.40;8.20
16172;DHT22;8192;53.596;10.166;2022-07-03T08:46:14;31.40;11.90
16172;DHT22;8192;53.596;10.166;2022-07-03T08:48:45;31.20;9.50
16172;DHT22;8192;53.596;10.166;2022-07-03T08:51:14;30.80;8.20
16172;DHT22;8192;53.596;10.166;2022-07-03T08:53:41;30.50;7.90
16172;DHT22;8192;53.596;10.166;2022-07-03T08:56:09;30.80;8.60
16172;DHT22;8192;53.596;10.166;2022-07-03T08:58:37;30.10;8.90
16172;DHT22;8192;53.596;10.166;2022-07-03T09:01:06;29.80;8.50
16172;DHT22;8192;53.596;10.166;2022-07-03T09:06:59;28.70;11.00
16172;DHT22;8192;53.596;10.166;2022-07-03T09:09:26;28.20;9.30
16172;DHT22;8192;53.596;10.166;2022-07-03T09:11:53;27.80;14.70
16172;DHT22;8192;53.596;10.166;2022-07-03T09:14:21;27.60;18.60
16172;DHT22;8192;53.596;10.166;2022-07-03T09:16:48;27.80;14.30
16172;DHT22;8192;53.596;10.166;2022-07-03T09:19:40;27.60;15.00
16172;DHT22;8192;53.596;10.166;2022-07-03T09:22:25;27.50;14.50
16172;DHT22;8192;53.596;10.166;2022-07-03T09:24:53;27.70;13.30
16172;DHT22;8192;53.596;10.166;2022-07-03T09:27:22;28.00;14.10
16172;DHT22;8192;53.596;10.166;2022-07-03T09:30:00;28.00;14.70
16172;DHT22;8192;53.596;10.166;2022-07-03T09:32:31;28.20;12.50
16172;DHT22;8192;53.596;10.166;2022-07-03T09:35:13;27.90;12.60
16172;DHT22;8192;53.596;10.166;2022-07-03T09:37:47;27.80;13.70
16172;DHT22;8192;53.596;10.166;2022-07-03T09:40:15;27.40;14.10
16172;DHT22;8192;53.596;10.166;2022-07-03T09:43:00;27.40;16.10
16172;DHT22;8192;53.596;10.166;2022-07-03T09:45:47;27.30;15.00
16172;DHT22;8192;53.596;10.166;2022-07-03T09:48:26;27.50;17.60
16172;DHT22;8192;53.596;10.166;2022-07-03T09:54:15;27.50;13.60
16172;DHT22;8192;53.596;10.166;2022-07-03T09:56:42;27.40;15.90
16172;DHT22;8192;53.596;10.166;2022-07-03T09:59:10;27.70;18.20
16172;DHT22;8192;53.596;10.166;2022-07-03T10:01:39;27.80;14.90
16172;DHT22;8192;53.596;10.166;2022-07-03T10:04:16;27.70;16.10
16172;DHT22;8192;53.596;10.166;2022-07-03T10:06:54;27.50;17.50
16172;DHT22;8192;53.596;10.166;2022-07-03T10:09:23;27.20;16.40
16172;DHT22;8192;53.596;10.166;2022-07-03T10:11:52;27.40;16.80
16172;DHT22;8192;53.596;10.166;2022-07-03T10:14:30;27.80;15.80
16172;DHT22;8192;53.596;10.166;2022-07-03T10:16:59;27.70;15.20
16172;DHT22;8192;53.596;10.166;2022-07-03T10:19:28;28.00;15.40
16172;DHT22;8192;53.596;10.166;2022-07-03T10:21:57;27.90;16.10
16172;DHT22;8192;53.596;10.166;2022-07-03T10:24:28;28.00;18.60
16172;DHT22;8192;53.596;10.166;2022-07-03T10:26:58;27.70;16.10
16172;DHT22;8192;53.596;10.166;2022-07-03T10:29:27;27.40;17.40
16172;DHT22;8192;53.596;10.166;2022-07-03T10:31:54;26.90;16.80
16172;DHT22;8192;53.596;10.166;2022-07-03T10:34:24;26.50;16.60
16172;DHT22;8192;53.596;10.166;2022-07-03T10:36:54;26.90;19.30
16172;DHT22;8192;53.596;10.166;2022-07-03T10:42:48;26.70;18.00
16172;DHT22;8192;53.596;10.166;2022-07-03T10:45:34;26.10;19.00
16172;DHT22;8192;53.596;10.166;2022-07-03T10:48:01;26.20;20.80
16172;DHT22;8192;53.596;10.166;2022-07-03T10:50:29;26.30;20.80
16172;DHT22;8192;53.596;10.166;2022-07-03T10:53:21;26.20;19.00
16172;DHT22;8192;53.596;10.166;2022-07-03T10:56:03;26.20;19.50
16172;DHT22;8192;53.596;10.166;2022-07-03T10:58:32;26.00;19.40
16172;DHT22;8192;53.596;10.166;2022-07-03T11:01:25;26.20;21.20
16172;DHT22;8192;53.596;10.166;2022-07-03T11:03:56;26.30;19.40
16172;DHT22;8192;53.596;10.166;2022-07-03T11:09:30;26.10;18.20
16172;DHT22;8192;53.596;10.166;2022-07-03T11:11:57;26.40;19.00
16172;DHT22;8192;53.596;10.166;2022-07-03T11:14:27;26.30;12.00
16172;DHT22;8192;53.596;10.166;2022-07-03T11:17:16;26.60;12.70
16172;DHT22;8192;53.596;10.166;2022-07-03T11:19:44;26.90;12.90
16172;DHT22;8192;53.596;10.166;2022-07-03T11:22:49;27.40;18.40
16172;DHT22;8192;53.596;10.166;2022-07-03T11:25:18;27.50;17.70
16172;DHT22;8192;53.596;10.166;2022-07-03T11:27:45;27.40;16.20
16172;DHT22;8192;53.596;10.166;2022-07-03T11:30:15;27.30;16.10
16172;DHT22;8192;53.596;10.166;2022-07-03T11:32:45;27.20;13.90
16172;DHT22;8192;53.596;10.166;2022-07-03T11:35:48;27.10;13.30
16172;DHT22;8192;53.596;10.166;2022-07-03T11:38:23;25.70;15.20
16172;DHT22;8192;53.596;10.166;2022-07-03T11:41:01;26.90;14.10
16172;DHT22;8192;53.596;10.166;2022-07-03T11:43:29;26.90;12.90
16172;DHT22;8192;53.596;10.166;2022-07-03T11:45:57;27.00;13.60
16172;DHT22;8192;53.596;10.166;2022-07-03T11:48:25;26.90;14.80
16172;DHT22;8192;53.596;10.166;2022-07-03T11:50:59;26.80;16.30
16172;DHT22;8192;53.596;10.166;2022-07-03T11:53:28;26.40;14.50
16172;DHT22;8192;53.596;10.166;2022-07-03T12:05:56;28.10;15.30
16172;DHT22;8192;53.596;10.166;2022-07-03T12:08:37;28.20;11.60
16172;DHT22;8192;53.596;10.166;2022-07-03T12:11:14;27.50;10.20
16172;DHT22;8192;53.596;10.166;2022-07-03T12:13:46;27.50;11.20
16172;DHT22;8192;53.596;10.166;2022-07-03T12:16:16;27.30;10.50
16172;DHT22;8192;53.596;10.166;2022-07-03T12:18:47;27.10;11.90
16172;DHT22;8192;53.596;10.166;2022-07-03T12:21:19;26.70;11.70
16172;DHT22;8192;53.596;10.166;2022-07-03T12:24:09;26.60;11.50
16172;DHT22;8192;53.596;10.166;2022-07-03T12:32:31;27.50;9.30
16172;DHT22;8192;53.596;10.166;2022-07-03T12:43:59;27.50;10.20
16172;DHT22;8192;53.596;10.166;2022-07-03T12:46:34;27.60;9.50
16172;DHT22;8192;53.596;10.166;2022-07-03T12:49:10;27.50;11.20
16172;DHT22;8192;53.596;10.166;2022-07-03T12:51:40;27.50;12.70
16172;DHT22;8192;53.596;10.166;2022-07-03T12:57:13;27.90;10.50
16172;DHT22;8192;53.596;10.166;2022-07-03T13:00:27;27.50;10.60
16172;DHT22;8192;53.596;10.166;2022-07-03T13:03:03;27.40;11.30
16172;DHT22;8192;53.596;10.166;2022-07-03T13:08:18;27.80;11.30
16172;DHT22;8192;53.596;10.166;2022-07-03T13:34:37;27.50;13.20
16172;DHT22;8192;53.596;10.166;2022-07-03T13:42:28;28.40;13.00
16172;DHT22;8192;53.596;10.166;2022-07-03T13:45:16;28.50;13.90
16172;DHT22;8192;53.596;10.166;2022-07-03T13:47:47;28.40;10.10
16172;DHT22;8192;53.596;10.166;2022-07-03T13:50:18;28.00;10.80
16172;DHT22;8192;53.596;10.166;2022-07-03T13:56:17;28.10;9.30
16172;DHT22;8192;53.596;10.166;2022-07-03T13:58:49;28.50;7.20
16172;DHT22;8192;53.596;10.166;2022-07-03T14:01:17;28.40;6.60
16172;DHT22;8192;53.596;10.166;2022-07-03T14:03:45;28.90;7.70
16172;DHT22;8192;53.596;10.166;2022-07-03T14:06:15;29.50;8.40
16172;DHT22;8192;53.596;10.166;2022-07-03T14:08:53;29.40;5.10
16172;DHT22;8192;53.596;10.166;2022-07-03T14:11:24;29.50;5.20
16172;DHT22;8192;53.596;10.166;2022-07-03T14:14:14;29.30;5.40
16172;DHT22;8192;53.596;10.166;2022-07-03T14:16:43;30.30;7.00
16172;DHT22;8192;53.596;10.166;2022-07-03T14:19:17;29.70;4.40
16172;DHT22;8192;53.596;10.166;2022-07-03T14:21:49;30.30;3.20
16172;DHT22;8192;53.596;10.166;2022-07-03T14:24:16;30.30;1.90
16172;DHT22;8192;53.596;10.166;2022-07-03T14:26:49;29.70;2.20
16172;DHT22;8192;53.596;10.166;2022-07-03T14:29:35;29.60;2.60
16172;DHT22;8192;53.596;10.166;2022-07-03T14:32:27;29.80;1.90
16172;DHT22;8192;53.596;10.166;2022-07-03T14:35:03;29.40;4.10
16172;DHT22;8192;53.596;10.166;2022-07-03T14:37:37;29.40;2.80
16172;DHT22;8192;53.596;10.166;2022-07-03T14:40:10;29.70;2.90
16172;DHT22;8192;53.596;10.166;2022-07-03T14:42:46;30.20;4.10
16172;DHT22;8192;53.596;10.166;2022-07-03T14:45:17;29.80;4.30
16172;DHT22;8192;53.596;10.166;2022-07-03T14:47:50;30.20;4.60
16172;DHT22;8192;53.596;10.166;2022-07-03T14:53:23;29.70;1.10
16172;DHT22;8192;53.596;10.166;2022-07-03T14:55:52;30.50;3.70
16172;DHT22;8192;53.596;10.166;2022-07-03T14:58:26;31.00;1.00
16172;DHT22;8192;53.596;10.166;2022-07-03T15:00:58;31.50;1.00
16172;DHT22;8192;53.596;10.166;2022-07-03T15:03:29;31.90;1.00
16172;DHT22;8192;53.596;10.166;2022-07-03T15:05:58;32.40;1.00
16172;DHT22;8192;53.596;10.166;2022-07-03T15:11:32;32.70;1.00
16172;DHT22;8192;53.596;10.166;2022-07-03T15:14:21;32.70;1.00
16172;DHT22;8192;53.596;10.166;2022-07-03T15:20:13;31.30;2.00
16172;DHT22;8192;53.596;10.166;2022-07-03T15:22:48;31.10;1.00
16172;DHT22;8192;53.596;10.166;2022-07-03T15:28:41;30.70;1.00
16172;DHT22;8192;53.596;10.166;2022-07-03T15:31:10;30.30;1.00
16172;DHT22;8192;53.596;10.166;2022-07-03T15:33:40;29.50;1.00
16172;DHT22;8192;53.596;10.166;2022-07-03T15:36:07;28.60;1.00
16172;DHT22;8192;53.596;10.166;2022-07-03T15:42:05;30.00;1.00
16172;DHT22;8192;53.596;10.166;2022-07-03T15:44:50;29.90;1.00
16172;DHT22;8192;53.596;10.166;2022-07-03T15:47:38;29.50;1.70
16172;DHT22;8192;53.596;10.166;2022-07-03T15:50:20;28.50;1.50
16172;DHT22;8192;53.596;10.166;2022-07-03T15:53:04;27.20;1.20
16172;DHT22;8192;53.596;10.166;2022-07-03T16:05:42;24.50;16.30
16172;DHT22;8192;53.596;10.166;2022-07-03T16:08:12;24.20;23.60
16172;DHT22;8192;53.596;10.166;2022-07-03T16:10:40;24.30;26.30
16172;DHT22;8192;53.596;10.166;2022-07-03T16:16:47;24.30;28.60
16172;DHT22;8192;53.596;10.166;2022-07-03T16:19:20;24.30;28.70
16172;DHT22;8192;53.596;10.166;2022-07-03T16:21:53;24.00;28.80
16172;DHT22;8192;53.596;10.166;2022-07-03T16:24:25;23.60;29.90
16172;DHT22;8192;53.596;10.166;2022-07-03T16:26:57;24.00;29.00
16172;DHT22;8192;53.596;10.166;2022-07-03T16:29:25;24.10;28.50
16172;DHT22;8192;53.596;10.166;2022-07-03T16:31:55;24.10;28.00
16172;DHT22;8192;53.596;10.166;2022-07-03T16:34:33;23.80;28.90
16172;DHT22;8192;53.596;10.166;2022-07-03T16:37:28;23.80;29.00
16172;DHT22;8192;53.596;10.166;2022-07-03T16:40:19;23.80;29.30
16172;DHT22;8192;53.596;10.166;2022-07-03T16:43:03;23.50;29.00
16172;DHT22;8192;53.596;10.166;2022-07-03T16:45:40;23.20;31.70
16172;DHT22;8192;53.596;10.166;2022-07-03T16:48:18;22.90;32.80
16172;DHT22;8192;53.596;10.166;2022-07-03T16:50:56;23.20;30.40
16172;DHT22;8192;53.596;10.166;2022-07-03T16:53:50;23.20;29.40
16172;DHT22;8192;53.596;10.166;2022-07-03T16:59:56;23.30;32.00
16172;DHT22;8192;53.596;10.166;2022-07-03T17:02:41;23.80;31.50
16172;DHT22;8192;53.596;10.166;2022-07-03T17:05:13;23.90;29.90
16172;DHT22;8192;53.596;10.166;2022-07-03T17:07:42;23.90;28.90
16172;DHT22;8192;53.596;10.166;2022-07-03T17:10:16;24.10;28.90
16172;DHT22;8192;53.596;10.166;2022-07-03T17:12:48;23.90;29.10
16172;DHT22;8192;53.596;10.166;2022-07-03T17:15:22;24.40;28.60
16172;DHT22;8192;53.596;10.166;2022-07-03T17:18:00;24.60;28.30
16172;DHT22;8192;53.596;10.166;2022-07-03T17:20:35;24.70;26.90
16172;DHT22;8192;53.596;10.166;2022-07-03T17:23:07;24.10;28.40
16172;DHT22;8192;53.596;10.166;2022-07-03T17:25:41;24.20;28.60
16172;DHT22;8192;53.596;10.166;2022-07-03T17:28:13;24.20;28.00
16172;DHT22;8192;53.596;10.166;2022-07-03T17:31:03;24.30;29.50
16172;DHT22;8192;53.596;10.166;2022-07-03T17:33:36;24.60;28.70
16172;DHT22;8192;53.596;10.166;2022-07-03T17:36:29;24.80;25.70
16172;DHT22;8192;53.596;10.166;2022-07-03T17:39:13;24.00;27.70
16172;DHT22;8192;53.596;10.166;2022-07-03T17:41:50;23.50;30.00
16172;DHT22;8192;53.596;10.166;2022-07-03T17:44:35;23.70;29.80
16172;DHT22;8192;53.596;10.166;2022-07-03T17:47:06;23.80;30.60
16172;DHT22;8192;53.596;10.166;2022-07-03T17:49:42;23.60;31.10
16172;DHT22;8192;53.596;10.166;2022-07-03T17:52:24;23.60;31.50
16172;DHT22;8192;53.596;10.166;2022-07-03T17:54:59;23.10;34.90